Time;durP1;ratioP1;P1;durP2;ratioP2;P2;SDS_P1;SDS_P2;PMS_P1;PMS_P2;Temp;Humidity;BMP_temperature;BMP_pressure;BME280_temperature;BME280_humidity;BME280_pressure;Samples;Min_cycle;Max_cycle;Signal;HPM_P1;HPM_P2
2022/10/05 00:01:42;;;;;;;;;;;;;;;12.09;62.44;101357.06;5027985;28;20525;-71
2022/10/05 00:04:36;;;;;;;3.60;1.48;;;;;;;12.02;62.41;101357.59;5027715;28;19919;-69
2022/10/05 00:07:13;;;;;;;5.28;1.52;;;;;;;11.69;60.77;101318.09;4911226;29;20048;-69
2022/10/05 00:09:38;;;;;;;1.90;1.40;;;;;;;11.60;61.69;101321.16;4911658;29;20107;-74
2022/10/05 00:12:18;;;;;;;7.22;1.63;;;;;;;11.73;62.25;101357.13;4911819;29;20075;-72
2022/10/05 00:14:45;;;;;;;4.68;1.75;;;;;;;11.75;62.82;101359.78;4895642;29;20039;-68
2022/10/05 00:17:22;;;;;;;4.45;1.60;;;;;;;11.80;63.26;101354.00;4911071;29;20506;-72
2022/10/05 00:19:52;;;;;;;3.60;1.50;;;;;;;11.84;63.28;101360.22;4911480;29;20036;-71
2022/10/05 00:22:31;;;;;;;2.70;1.63;;;;;;;11.89;63.83;101370.78;4911454;29;20044;-70
2022/10/05 00:25:02;;;;;;;6.05;1.52;;;;;;;11.95;63.54;101366.75;4911604;29;20036;-70
2022/10/05 00:27:36;;;;;;;3.35;1.50;;;;;;;11.93;63.44;101381.31;4911400;29;20036;-70
2022/10/05 00:30:12;;;;;;;4.45;1.70;;;;;;;11.66;64.55;101378.34;4911275;29;20040;-72
2022/10/05 00:32:38;;;;;;;2.53;1.50;;;;;;;11.65;64.88;101380.06;4926925;29;20029;-70
2022/10/05 00:35:04;;;;;;;2.53;1.52;;;;;;;11.78;64.93;101385.81;4911479;29;20048;-69
2022/10/05 00:37:29;;;;;;;4.22;1.55;;;;;;;11.77;63.97;101387.47;4911182;29;20059;-72
2022/10/05 00:39:55;;;;;;;5.05;1.30;;;;;;;11.73;63.27;101388.16;4911239;29;20144;-71
2022/10/05 00:42:28;;;;;;;3.53;1.50;;;;;;;11.71;62.82;101384.59;4915777;28;20068;-71
2022/10/05 00:45:11;;;;;;;3.63;1.50;;;;;;;11.47;62.47;101335.22;5013323;28;20037;-67
2022/10/05 00:48:01;;;;;;;3.83;1.55;;;;;;;11.49;63.94;101377.56;5013614;28;20389;-71
2022/10/05 00:51:04;;;;;;;4.85;1.23;;;;;;;11.32;64.85;101389.66;5013533;28;20515;-71
2022/10/05 00:53:55;;;;;;;3.70;1.73;;;;;;;11.29;65.59;101390.41;5013682;28;20065;-68
2022/10/05 00:56:38;;;;;;;2.45;1.48;;;;;;;11.09;62.51;101384.25;5013522;28;20417;-72
2022/10/05 00:59:19;;;;;;;2.60;1.30;;;;;;;10.84;62.68;101385.59;5013325;28;20045;-70
2022/10/05 01:02:11;;;;;;;6.18;1.52;;;;;;;10.73;64.31;101386.75;5013676;28;20025;-72
2022/10/05 01:04:58;;;;;;;3.42;1.60;;;;;;;10.69;64.46;101384.81;5013408;28;20527;-71
2022/10/05 01:07:29;;;;;;;2.55;1.60;;;;;;;10.67;65.25;101391.63;5013489;28;20061;-70
2022/10/05 01:10:14;;;;;;;4.60;1.50;;;;;;;10.52;65.98;101402.03;5013987;28;20036;-74
2022/10/05 01:13:04;;;;;;;1.67;1.30;;;;;;;10.42;66.06;101380.00;5013670;28;20037;-71
2022/10/05 01:15:45;;;;;;;6.28;1.77;;;;;;;10.56;66.74;101393.63;5013009;28;20040;-72
2022/10/05 01:18:24;;;;;;;5.35;1.60;;;;;;;10.43;67.66;101368.88;5011944;28;20041;-68
2022/10/05 01:21:25;;;;;;;4.32;1.77;;;;;;;10.62;67.73;101401.69;5014056;28;20374;-72
2022/10/05 01:24:09;;;;;;;2.40;1.30;;;;;;;10.57;67.47;101404.88;5011019;28;20042;-69
2022/10/05 01:26:44;;;;;;;2.92;1.58;;;;;;;10.58;67.89;101399.78;5010929;28;20125;-71
2022/10/05 01:29:24;;;;;;;3.28;1.60;;;;;;;10.70;68.09;101411.53;5010797;28;20521;-70
2022/10/05 01:32:16;;;;;;;2.10;1.52;;;;;;;10.60;67.60;101382.66;5011030;28;20104;-74
2022/10/05 01:35:09;;;;;;;4.55;1.42;;;;;;;10.72;67.96;101413.41;5011294;28;20177;-68
2022/10/05 01:37:47;;;;;;;1.52;1.27;;;;;;;10.52;68.28;101381.38;4933407;29;20059;-72
2022/10/05 01:40:27;;;;;;;4.13;1.65;;;;;;;10.83;67.54;101421.69;4933198;29;20042;-68
2022/10/05 01:43:08;;;;;;;2.05;1.50;;;;;;;10.52;68.04;101366.75;4933128;29;20560;-68
2022/10/05 01:45:48;;;;;;;2.05;1.40;;;;;;;10.67;68.67;101409.69;4933203;29;20044;-69
2022/10/05 01:48:25;;;;;;;4.72;2.10;;;;;;;10.64;69.21;101409.50;4933094;29;20066;-71
2022/10/05 01:51:15;;;;;;;5.03;1.58;;;;;;;10.66;69.52;101408.78;4933116;29;20047;-70
2022/10/05 01:54:08;;;;;;;4.75;1.50;;;;;;;10.60;69.45;101407.59;4932992;29;20062;-72
2022/10/05 01:56:33;;;;;;;2.53;1.27;;;;;;;10.43;68.68;101407.59;4932375;29;20568;-71
2022/10/05 01:59:16;;;;;;;3.35;1.48;;;;;;;10.31;67.46;101415.53;4933048;29;20044;-74
2022/10/05 02:02:10;;;;;;;3.53;1.60;;;;;;;10.28;68.77;101419.66;4932964;29;20122;-72
2022/10/05 02:04:48;;;;;;;3.28;1.70;;;;;;;10.18;69.69;101424.34;4932988;29;20027;-74
2022/10/05 02:07:23;;;;;;;5.40;1.60;;;;;;;10.05;69.62;101393.50;4933105;29;20497;-70
2022/10/05 02:09:54;;;;;;;2.88;1.40;;;;;;;10.20;69.37;101409.81;4932706;29;20488;-69
2022/10/05 02:12:24;;;;;;;5.25;1.52;;;;;;;10.39;68.93;101440.91;4932919;29;20035;-73
2022/10/05 02:14:52;;;;;;;;;;;;;;;10.39;68.90;101438.34;4979933;28;20049;-75
2022/10/05 02:17:43;;;;;;;2.92;1.70;;;;;;;10.41;68.48;101440.19;5010121;28;20350;-73
2022/10/05 02:20:13;;;;;;;3.80;1.65;;;;;;;10.38;68.87;101436.56;5002804;28;20049;-71
2022/10/05 02:22:46;;;;;;;1.98;1.40;;;;;;;10.32;67.34;101439.69;4993051;28;20113;-73
2022/10/05 02:25:19;;;;;;;4.03;1.52;;;;;;;10.30;67.12;101446.44;4992760;28;20516;-73
2022/10/05 02:28:00;;;;;;;3.42;1.88;;;;;;;10.01;67.78;101435.44;4992874;28;20030;-76
2022/10/05 02:30:29;;;;;;;2.42;1.50;;;;;;;9.71;68.84;101408.03;4992494;28;20515;-71
2022/10/05 02:33:00;;;;;;;4.00;1.60;;;;;;;9.65;69.45;101425.72;4992712;28;20038;-73
2022/10/05 02:35:26;;;;;;;2.33;1.65;;;;;;;9.79;69.46;101459.16;4992627;28;20026;-70
2022/10/05 02:38:13;;;;;;;3.95;1.80;;;;;;;9.66;69.45;101424.06;4992849;28;20034;-76
2022/10/05 02:41:09;;;;;;;3.90;1.60;;;;;;;9.69;69.35;101463.78;4992650;28;20034;-71
2022/10/05 02:44:27;;;;;;;2.70;1.70;;;;;;;9.57;69.85;101455.38;4992602;28;20404;-72
2022/10/05 02:47:26;;;;;;;3.63;1.60;;;;;;;9.74;70.81;101458.00;4970592;28;20435;-73
2022/10/05 02:50:25;;;;;;;2.78;1.70;;;;;;;9.77;72.10;101458.16;4970631;28;20138;-75
2022/10/05 02:53:27;;;;;;;3.13;1.90;;;;;;;9.75;72.26;101464.94;4951009;29;20036;-70
2022/10/05 02:55:53;;;;;;;2.67;1.90;;;;;;;9.74;72.73;101464.03;4951086;29;20098;-72
2022/10/05 02:58:22;;;;;;;5.80;2.03;;;;;;;9.71;73.39;101474.19;4951036;29;20075;-75
2022/10/05 03:00:53;;;;;;;1.98;1.50;;;;;;;9.63;73.93;101472.84;4951196;29;20114;-70
2022/10/05 03:04:03;;;;;;;5.82;1.70;;;;;;;9.62;73.93;101469.41;4950939;29;20043;-71
2022/10/05 03:06:36;;;;;;;4.35;1.73;;;;;;;9.65;73.46;101477.28;4950394;28;20445;-70
2022/10/05 03:09:04;;;;;;;2.78;1.65;;;;;;;9.61;72.37;101474.44;4950387;28;20023;-76
2022/10/05 03:11:50;;;;;;;2.78;1.70;;;;;;;9.57;72.25;101470.84;4950921;29;20040;-72
2022/10/05 03:14:42;;;;;;;2.95;1.90;;;;;;;9.62;72.71;101483.97;4950824;29;20446;-74
2022/10/05 03:17:16;;;;;;;2.95;1.70;;;;;;;9.53;73.93;101486.91;4956002;28;20043;-75
2022/10/05 03:20:00;;;;;;;3.33;1.80;;;;;;;9.50;74.18;101490.19;4970007;28;20039;-72
2022/10/05 03:22:46;;;;;;;4.57;1.85;;;;;;;9.36;72.90;101442.13;4970024;28;20531;-72
2022/10/05 03:25:39;;;;;;;2.83;2.00;;;;;;;9.55;73.11;101490.47;4992031;28;20069;-75
2022/10/05 03:28:08;;;;;;;2.90;1.70;;;;;;;9.39;74.10;101486.09;4991694;28;20045;-70
2022/10/05 03:31:02;;;;;;;4.05;2.00;;;;;;;9.40;74.03;101485.31;4991898;28;20468;-74
2022/10/05 03:33:46;;;;;;;4.32;2.00;;;;;;;9.45;74.17;101503.63;4950600;29;20035;-73
2022/10/05 03:36:32;;;;;;;3.33;2.15;;;;;;;9.50;73.79;101499.63;4950519;29;20094;-73
2022/10/05 03:39:10;;;;;;;4.05;2.15;;;;;;;9.24;73.73;101457.75;4950249;29;20041;-73
2022/10/05 03:41:44;;;;;;;3.05;1.80;;;;;;;9.52;74.93;101496.34;4950481;29;20094;-73
2022/10/05 03:44:25;;;;;;;2.38;1.83;;;;;;;9.57;74.46;101495.69;4950359;29;20055;-74
2022/10/05 03:47:24;;;;;;;1.92;1.65;;;;;;;9.57;74.00;101506.00;4961709;28;20218;-73
2022/10/05 03:49:55;;;;;;;5.72;2.00;;;;;;;9.68;74.34;101512.69;4969683;28;20425;-76
2022/10/05 03:52:28;;;;;;;5.25;2.03;;;;;;;9.70;74.71;101513.66;4969647;28;20031;-74
2022/10/05 03:55:04;;;;;;;7.32;2.05;;;;;;;9.60;74.46;101508.78;4969549;28;20119;-74
2022/10/05 03:57:37;;;;;;;5.10;2.40;;;;;;;9.33;73.74;101508.94;4969435;28;20085;-71
2022/10/05 04:00:22;;;;;;;5.10;2.00;;;;;;;9.37;73.66;101523.78;4969273;28;20026;-74
2022/10/05 04:02:59;;;;;;;6.18;2.10;;;;;;;9.37;74.12;101522.09;4969304;28;20038;-75
2022/10/05 04:05:34;;;;;;;3.97;2.10;;;;;;;9.35;74.73;101522.81;4969393;28;20039;-75
2022/10/05 04:08:19;;;;;;;5.70;2.20;;;;;;;9.24;74.26;101527.34;4969449;28;20541;-71
2022/10/05 04:10:49;;;;;;;4.45;2.00;;;;;;;8.92;73.92;101492.78;4987942;28;20037;-76
2022/10/05 04:13:45;;;;;;;3.72;2.05;;;;;;;9.13;73.75;101533.53;5010490;28;20030;-74
2022/10/05 04:16:28;;;;;;;3.00;2.10;;;;;;;9.22;73.86;101541.81;5010598;28;20080;-72
2022/10/05 04:19:12;;;;;;;4.40;2.10;;;;;;;9.19;74.79;101542.50;5008924;28;20064;-74
2022/10/05 04:22:02;;;;;;;4.93;2.17;;;;;;;8.93;76.05;101498.84;5013225;28;20026;-73
2022/10/05 04:24:33;;;;;;;;;;;;;;;9.09;76.67;101545.34;5013220;28;20423;-71
2022/10/05 04:27:06;;;;;;;3.00;1.92;;;;;;;8.93;77.23;101545.22;5029560;28;20402;-71
2022/10/05 04:30:01;;;;;;;4.38;1.77;;;;;;;8.88;77.47;101553.56;5014493;28;20030;-73
2022/10/05 04:32:44;;;;;;;8.20;2.60;;;;;;;8.63;76.04;101552.84;5012384;28;20022;-73
2022/10/05 04:35:24;;;;;;;6.40;2.45;;;;;;;8.73;75.84;101555.16;5012679;28;20025;-73
2022/10/05 04:38:09;;;;;;;6.57;2.15;;;;;;;8.77;75.89;101554.56;5012934;28;20022;-74
2022/10/05 04:40:54;;;;;;;8.32;2.10;;;;;;;8.77;75.57;101549.41;5014460;28;20029;-71
2022/10/05 04:43:27;;;;;;;4.65;2.28;;;;;;;8.89;76.14;101565.63;5013916;28;20099;-75
2022/10/05 04:46:14;;;;;;;5.13;2.20;;;;;;;8.86;76.92;101569.69;5014045;28;20026;-74
2022/10/05 04:48:54;;;;;;;3.95;2.10;;;;;;;8.88;76.89;101574.16;4994605;28;20050;-72
2022/10/05 04:51:57;;;;;;;8.45;2.72;;;;;;;8.85;76.99;101580.81;5009782;28;20095;-71
2022/10/05 04:55:07;;;;;;;3.60;2.08;;;;;;;8.87;76.84;101586.91;5014645;28;20519;-74
2022/10/05 04:58:17;;;;;;;5.53;2.65;;;;;;;8.86;77.28;101587.72;4992182;28;20034;-74
2022/10/05 05:01:20;;;;;;;12.40;2.83;;;;;;;8.92;77.60;101592.38;4932856;29;20047;-71
2022/10/05 05:04:20;;;;;;;7.03;3.25;;;;;;;8.98;77.53;101596.19;4934059;29;20046;-77
2022/10/05 05:07:05;;;;;;;31.80;15.38;;;;;;;9.09;78.14;101589.13;4931843;29;20044;-73
2022/10/05 05:09:39;;;;;;;12.07;5.30;;;;;;;9.11;76.33;101592.69;4933750;29;20039;-73
2022/10/05 05:12:47;;;;;;;9.38;3.38;;;;;;;9.23;76.03;101605.41;4932343;29;20426;-73
2022/10/05 05:15:40;;;;;;;6.20;3.70;;;;;;;9.23;77.83;101605.41;4930425;29;20106;-71
2022/10/05 05:18:27;;;;;;;6.38;3.20;;;;;;;9.02;78.07;101559.53;4932616;29;20036;-74
2022/10/05 05:21:28;;;;;;;6.60;3.10;;;;;;;9.26;78.24;101602.13;4931675;29;20075;-75
2022/10/05 05:24:27;;;;;;;6.03;3.03;;;;;;;9.33;78.48;101610.34;4931638;29;20094;-72
2022/10/05 05:27:13;;;;;;;9.55;2.75;;;;;;;9.20;78.27;101600.09;4933450;29;20046;-72
2022/10/05 05:29:57;;;;;;;6.00;3.00;;;;;;;9.03;78.99;101601.63;4932241;29;20031;-73
2022/10/05 05:32:43;;;;;;;4.47;2.80;;;;;;;8.94;78.88;101593.34;4981418;28;20121;-73
2022/10/05 05:35:14;;;;;;;5.80;3.10;;;;;;;8.97;79.05;101602.16;5012462;28;20570;-72
2022/10/05 05:37:48;;;;;;;7.32;3.03;;;;;;;9.02;78.92;101618.78;5013151;28;20026;-72
2022/10/05 05:40:49;;;;;;;7.45;3.40;;;;;;;9.09;78.81;101614.00;5012861;28;20021;-73
2022/10/05 05:43:33;;;;;;;6.60;3.58;;;;;;;9.02;79.45;101605.91;5009580;28;20109;-75
2022/10/05 05:46:03;;;;;;;6.22;3.22;;;;;;;9.17;79.43;101623.09;5008582;28;20026;-72
2022/10/05 05:48:39;;;;;;;5.65;3.20;;;;;;;9.27;79.52;101629.69;5007938;28;20112;-72
2022/10/05 05:51:10;;;;;;;6.25;3.72;;;;;;;9.25;79.45;101621.88;5008587;28;20042;-72
2022/10/05 05:53:39;;;;;;;4.93;3.63;;;;;;;9.14;79.61;101587.72;5008686;28;20531;-73
2022/10/05 05:56:18;;;;;;;6.35;3.30;;;;;;;9.48;79.28;101625.84;5008616;28;20148;-73
2022/10/05 05:58:55;;;;;;;7.45;3.38;;;;;;;9.66;79.11;101641.53;5008080;28;20041;-72
2022/10/05 06:01:37;;;;;;;7.38;4.47;;;;;;;9.76;78.81;101637.81;5008200;28;20042;-72
2022/10/05 06:04:14;;;;;;;7.53;5.88;;;;;;;9.83;79.14;101628.72;5009444;28;20470;-74
2022/10/05 06:06:52;;;;;;;5.55;4.10;;;;;;;9.83;78.53;101598.69;5009252;28;20042;-75
2022/10/05 06:09:34;;;;;;;7.03;4.28;;;;;;;10.15;78.48;101637.44;5008718;28;20021;-72
2022/10/05 06:12:19;;;;;;;7.75;4.32;;;;;;;10.32;78.83;101649.63;5008335;28;20041;-74
2022/10/05 06:14:51;;;;;;;10.02;4.07;;;;;;;10.56;78.13;101650.97;5009743;28;20168;-74
2022/10/05 06:17:42;;;;;;;9.50;4.68;;;;;;;10.74;77.68;101648.50;5011832;28;20042;-72
2022/10/05 06:20:19;;;;;;;7.43;4.50;;;;;;;10.99;77.19;101640.38;5010616;28;20133;-74
2022/10/05 06:22:46;;;;;;;7.10;4.28;;;;;;;11.17;76.44;101646.56;4991979;28;20068;-74
2022/10/05 06:25:11;;;;;;;5.68;3.97;;;;;;;11.32;75.66;101653.34;4992092;28;20033;-73
2022/10/05 06:28:15;;;;;;;6.38;4.45;;;;;;;11.58;75.25;101649.53;4992056;28;20030;-73
2022/10/05 06:31:31;;;;;;;7.68;4.07;;;;;;;11.71;74.25;101658.81;4991992;28;20085;-73
2022/10/05 06:34:37;;;;;;;6.60;4.40;;;;;;;11.83;74.49;101663.75;4988184;28;20480;-69
2022/10/05 06:37:27;;;;;;;5.78;4.30;;;;;;;12.07;73.40;101664.13;4949689;29;20762;-70
2022/10/05 06:40:10;;;;;;;7.13;4.30;;;;;;;12.37;72.46;101679.38;4950295;29;20082;-68
2022/10/05 06:43:04;;;;;;;6.55;4.40;;;;;;;12.20;71.55;101600.00;4949699;28;20035;-71
2022/10/05 06:46:10;;;;;;;6.18;4.30;;;;;;;12.73;71.16;101675.94;4925940;29;20040;-70
2022/10/05 06:49:03;;;;;;;8.57;4.80;;;;;;;12.68;71.68;101674.81;4934793;29;20884;-71
2022/10/05 06:51:43;;;;;;;7.03;4.20;;;;;;;12.65;71.40;101636.69;4941295;29;20035;-72
2022/10/05 06:54:30;;;;;;;6.78;4.45;;;;;;;13.02;70.64;101679.91;4948176;29;20036;-75
2022/10/05 06:57:16;;;;;;;10.38;4.47;;;;;;;13.14;70.78;101684.75;4933965;29;20514;-75
2022/10/05 06:59:55;;;;;;;10.73;4.95;;;;;;;13.40;69.45;101674.72;4950191;29;20035;-75
2022/10/05 07:02:35;;;;;;;7.65;4.38;;;;;;;13.61;69.40;101690.34;4949929;29;20039;-75
2022/10/05 07:05:37;;;;;;;7.70;4.60;;;;;;;13.73;69.34;101675.31;4950012;29;20763;-76
2022/10/05 07:08:18;;;;;;;7.90;4.53;;;;;;;13.32;70.74;101582.66;4949857;29;20043;-74
2022/10/05 07:10:44;;;;;;;8.60;4.53;;;;;;;14.11;69.25;101685.53;4915307;29;20054;-74
2022/10/05 07:13:27;;;;;;;6.22;4.30;;;;;;;14.31;68.36;101678.56;4920188;28;20031;-74
2022/10/05 07:16:23;;;;;;;7.82;3.92;;;;;;;14.46;66.73;101690.44;4990579;28;20041;-72
2022/10/05 07:19:17;;;;;;;5.28;4.00;;;;;;;14.30;67.12;101648.22;5008622;28;20508;-74
2022/10/05 07:22:01;;;;;;;6.18;4.00;;;;;;;14.75;66.24;101680.34;4993150;28;20513;-74
2022/10/05 07:24:58;;;;;;;6.63;4.05;;;;;;;14.85;68.22;101675.56;5002876;28;20104;-73
2022/10/05 07:27:31;;;;;;;5.78;3.80;;;;;;;14.97;65.81;101684.66;5027335;28;20136;-73
2022/10/05 07:30:08;;;;;;;6.97;3.90;;;;;;;15.10;64.70;101671.28;5026881;28;20083;-73
2022/10/05 07:33:10;;;;;;;5.13;3.20;;;;;;;15.13;64.21;101666.22;5021834;28;20494;-75
2022/10/05 07:38:56;;;;;;;6.43;3.50;;;;;;;15.23;62.31;101676.94;5027312;28;20116;-75
2022/10/05 07:41:39;;;;;;;4.47;3.30;;;;;;;15.25;62.35;101676.16;5026232;28;20029;-75
2022/10/05 07:44:12;;;;;;;4.43;2.72;;;;;;;15.20;61.20;101670.81;5026763;28;20076;-74
2022/10/05 07:47:03;;;;;;;4.70;2.60;;;;;;;15.40;61.08;101667.16;5027215;28;20195;-74
2022/10/05 07:49:37;;;;;;;4.22;3.00;;;;;;;15.22;60.91;101631.84;5026823;28;20534;-74
2022/10/05 07:52:14;;;;;;;4.55;2.92;;;;;;;15.62;61.50;101672.31;5028068;28;20490;-75
2022/10/05 07:54:57;;;;;;;6.90;3.80;;;;;;;15.53;60.14;101640.75;5026919;28;20125;-74
2022/10/05 07:57:41;;;;;;;6.30;4.00;;;;;;;15.92;58.96;101674.25;5027646;28;20033;-74
2022/10/05 08:00:22;;;;;;;6.80;3.53;;;;;;;16.18;56.73;101680.34;5027611;28;20553;-74
2022/10/05 08:03:05;;;;;;;4.88;2.78;;;;;;;16.01;56.41;101671.97;5023071;28;20156;-72
2022/10/05 08:05:36;;;;;;;5.40;2.72;;;;;;;15.94;57.60;101675.19;5001868;28;20395;-75
2022/10/05 08:08:21;;;;;;;4.55;2.60;;;;;;;16.27;55.26;101681.47;5010190;28;20033;-73
2022/10/05 08:11:13;;;;;;;4.47;2.38;;;;;;;16.43;54.81;101659.41;5010479;28;20105;-72
2022/10/05 08:14:05;;;;;;;3.67;2.30;;;;;;;16.56;54.62;101669.41;5046760;28;20040;-71
2022/10/05 08:16:36;;;;;;;2.97;2.20;;;;;;;16.84;53.95;101670.25;5047624;28;20049;-73
2022/10/05 08:19:15;;;;;;;4.03;2.00;;;;;;;16.79;53.32;101630.09;5047575;28;20049;-75
2022/10/05 08:21:46;;;;;;;5.57;2.10;;;;;;;16.95;55.88;101660.19;5047572;28;20029;-75
2022/10/05 08:24:35;;;;;;;7.57;3.53;;;;;;;16.91;56.19;101617.47;5048313;28;20090;-73
2022/10/05 08:27:28;;;;;;;5.88;2.95;;;;;;;16.87;52.25;101636.41;5048476;28;20044;-72
2022/10/05 08:30:00;;;;;;;7.50;2.55;;;;;;;17.23;55.94;101669.69;5048460;28;20033;-73
2022/10/05 08:32:56;;;;;;;5.03;1.90;;;;;;;17.24;51.90;101666.22;5048278;28;20037;-73
2022/10/05 08:35:32;;;;;;;4.85;1.75;;;;;;;17.29;51.63;101654.19;5048270;28;20028;-78
2022/10/05 08:38:01;;;;;;;3.92;1.70;;;;;;;17.49;51.09;101646.03;5046557;28;20055;-76
2022/10/05 08:41:04;;;;;;;4.55;1.60;;;;;;;17.82;53.20;101662.56;5015066;28;20514;-74
2022/10/05 08:44:07;;;;;;;2.97;1.50;;;;;;;17.99;49.89;101660.44;5048035;28;20404;-73
2022/10/05 08:47:29;;;;;;;4.85;1.70;;;;;;;18.20;49.26;101654.88;5048159;28;20097;-73
2022/10/05 08:50:03;;;;;;;5.15;2.10;;;;;;;18.23;50.94;101647.09;5008291;28;20084;-79
2022/10/05 08:53:00;;;;;;;3.33;1.75;;;;;;;18.29;49.30;101662.91;4988981;28;20041;-76
2022/10/05 08:55:33;;;;;;;2.85;1.50;;;;;;;18.27;49.01;101649.81;4989007;28;20034;-74
2022/10/05 08:58:17;;;;;;;5.53;1.60;;;;;;;18.25;50.80;101643.66;4988908;28;20034;-72
2022/10/05 09:00:42;;;;;;;5.95;1.60;;;;;;;18.31;50.70;101648.16;4988938;28;20413;-73
2022/10/05 09:03:27;;;;;;;4.70;1.98;;;;;;;18.48;49.43;101650.28;4988966;28;20034;-71
2022/10/05 09:06:19;;;;;;;2.70;1.35;;;;;;;18.62;47.32;101642.75;4991960;28;20036;-74
2022/10/05 09:08:53;;;;;;;1.58;1.27;;;;;;;18.75;45.63;101634.34;4915638;29;20044;-73
2022/10/05 09:11:31;;;;;;;2.25;1.50;;;;;;;18.83;45.95;101639.72;4915617;29;20115;-71
2022/10/05 09:14:21;;;;;;;4.72;1.60;;;;;;;19.05;49.26;101638.50;4915447;29;20040;-73
2022/10/05 09:17:19;;;;;;;3.80;1.40;;;;;;;18.73;45.72;101600.31;4915414;29;20076;-75
2022/10/05 09:20:13;;;;;;;6.18;1.77;;;;;;;19.06;47.34;101635.91;4920088;29;20458;-72
2022/10/05 09:22:57;;;;;;;3.97;1.42;;;;;;;19.11;44.97;101608.94;4934380;29;20031;-74
2022/10/05 09:25:47;;;;;;;4.82;1.60;;;;;;;19.50;44.00;101629.78;4934371;29;20506;-73
2022/10/05 09:28:27;;;;;;;7.75;1.90;;;;;;;19.70;42.49;101634.50;4934302;29;20106;-78
2022/10/05 09:31:11;;;;;;;8.02;2.05;;;;;;;19.88;41.19;101633.97;4934278;29;20039;-78
2022/10/05 09:34:10;;;;;;;6.95;1.70;;;;;;;20.02;42.57;101621.97;4934094;29;20039;-77
2022/10/05 09:37:05;;;;;;;10.27;2.55;;;;;;;20.17;40.36;101621.34;4934493;29;20532;-72
2022/10/05 09:39:34;;;;;;;4.47;1.77;;;;;;;20.19;40.83;101619.63;4934020;29;20036;-72
2022/10/05 09:42:14;;;;;;;5.03;1.63;;;;;;;20.34;40.41;101613.72;4934075;29;20035;-73
2022/10/05 09:45:18;;;;;;;3.42;1.30;;;;;;;20.56;42.17;101614.06;4943753;28;20122;-76
2022/10/05 09:48:04;;;;;;;2.70;1.33;;;;;;;20.67;41.21;101606.31;5013619;28;20057;-75
2022/10/05 09:51:00;;;;;;;5.18;1.33;;;;;;;20.77;38.90;101616.13;5013880;28;20117;-75
2022/10/05 09:53:44;;;;;;;8.32;2.10;;;;;;;20.82;38.42;101622.31;5013508;28;20038;-71
2022/10/05 09:56:19;;;;;;;6.75;2.13;;;;;;;20.58;38.67;101593.09;5013432;28;20026;-75
2022/10/05 09:59:41;;;;;;;11.18;2.53;;;;;;;20.67;38.90;101612.47;5013295;28;20033;-77
2022/10/05 10:02:15;;;;;;;10.63;2.40;;;;;;;20.80;39.32;101610.91;4991560;28;20026;-72
2022/10/05 10:04:42;;;;;;;8.90;2.22;;;;;;;20.96;37.81;101611.97;4991360;28;20030;-72
2022/10/05 10:07:10;;;;;;;6.35;1.77;;;;;;;21.11;37.22;101602.50;4991424;28;20517;-72
2022/10/05 10:09:55;;;;;;;5.55;1.48;;;;;;;20.66;37.20;101615.03;4991411;28;20507;-75
2022/10/05 10:12:31;;;;;;;3.50;1.10;;;;;;;20.26;38.49;101588.25;4991240;28;20027;-73
2022/10/05 10:15:15;;;;;;;5.28;1.30;;;;;;;20.35;38.25;101614.63;4991271;28;20045;-76
2022/10/05 10:18:01;;;;;;;8.43;1.67;;;;;;;20.67;38.57;101609.84;4990613;28;20510;-75
2022/10/05 10:21:11;;;;;;;6.80;1.70;;;;;;;20.87;40.32;101610.97;4991129;28;20097;-72
2022/10/05 10:23:45;;;;;;;7.32;1.60;;;;;;;21.10;37.74;101606.03;4991146;28;20032;-74
2022/10/05 10:26:32;;;;;;;5.57;1.92;;;;;;;21.37;36.97;101605.44;4991098;28;20042;-75
2022/10/05 10:29:31;;;;;;;3.58;1.73;;;;;;;21.67;37.82;101597.88;4991099;28;20033;-75
2022/10/05 10:32:05;;;;;;;8.95;1.52;;;;;;;21.46;35.80;101605.53;4993358;28;20430;-75
2022/10/05 10:35:05;;;;;;;4.20;1.50;;;;;;;21.36;38.31;101602.78;5013062;28;20026;-76
2022/10/05 10:37:51;;;;;;;3.42;1.20;;;;;;;21.49;37.66;101589.78;5012610;28;20112;-76
2022/10/05 10:40:41;;;;;;;4.40;1.20;;;;;;;21.78;35.29;101597.09;5012471;28;20109;-75
2022/10/05 10:43:25;;;;;;;3.13;1.00;;;;;;;21.94;34.27;101592.84;5010588;28;20073;-73
2022/10/05 10:46:09;;;;;;;2.13;1.20;;;;;;;21.95;34.62;101588.47;5012608;28;20092;-79
2022/10/05 10:48:56;;;;;;;5.15;1.77;;;;;;;22.12;35.84;101585.97;5012456;28;20143;-76
2022/10/05 10:51:54;;;;;;;3.40;1.20;;;;;;;22.31;35.04;101581.69;5011262;28;20033;-79
2022/10/05 10:54:26;;;;;;;3.80;1.50;;;;;;;22.23;35.16;101575.50;5012496;28;20036;-72
2022/10/05 10:57:04;;;;;;;4.45;1.40;;;;;;;22.29;34.55;101562.38;5012274;28;20500;-79
2022/10/05 11:00:08;;;;;;;4.72;1.52;;;;;;;22.36;33.22;101572.09;5010264;28;20048;-72
2022/10/05 11:02:55;;;;;;;3.53;1.40;;;;;;;22.31;33.12;101576.44;5012194;28;20473;-75
2022/10/05 11:05:35;;;;;;;4.28;1.40;;;;;;;22.39;33.45;101569.53;5012120;28;20088;-72
2022/10/05 11:08:41;;;;;;;3.10;1.35;;;;;;;22.44;33.55;101572.16;5012258;28;20083;-72
2022/10/05 11:12:07;;;;;;;4.43;1.50;;;;;;;22.72;35.42;101577.56;4990176;28;20070;-79
2022/10/05 11:14:47;;;;;;;3.85;1.50;;;;;;;22.63;33.90;101567.88;4913390;29;20573;-77
2022/10/05 11:17:40;;;;;;;3.00;1.50;;;;;;;22.12;33.92;101568.44;4913424;29;20039;-78
2022/10/05 11:20:37;;;;;;;8.45;1.70;;;;;;;21.92;34.96;101564.78;4911973;29;20106;-75
2022/10/05 11:23:21;;;;;;;3.65;1.50;;;;;;;22.19;35.81;101550.06;4913375;29;20056;-73
2022/10/05 11:26:23;;;;;;;2.75;1.40;;;;;;;22.10;34.80;101556.16;4913458;29;20047;-75
2022/10/05 11:29:04;;;;;;;2.20;1.08;;;;;;;22.43;34.86;101544.97;4912622;29;20419;-73
2022/10/05 11:31:53;;;;;;;3.42;1.27;;;;;;;22.72;33.31;101552.13;4913148;29;20048;-76
2022/10/05 11:34:24;;;;;;;2.65;1.30;;;;;;;22.45;32.64;101548.50;4913074;29;20032;-79
2022/10/05 11:37:25;;;;;;;2.95;1.25;;;;;;;22.36;32.97;101542.28;4913018;29;20055;-74
2022/10/05 11:40:13;;;;;;;2.15;1.30;;;;;;;22.69;33.18;101546.84;4912968;29;20028;-75
2022/10/05 11:42:44;;;;;;;1.55;1.10;;;;;;;22.69;34.81;101538.94;4912794;29;20048;-79
2022/10/05 11:45:24;;;;;;;4.30;1.20;;;;;;;22.81;32.43;101534.59;4957967;28;20126;-76
2022/10/05 11:48:30;;;;;;;2.28;1.30;;;;;;;22.88;35.27;101537.25;4999856;28;20576;-73
2022/10/05 11:51:26;;;;;;;4.90;1.17;;;;;;;22.57;34.51;101526.59;4989456;28;20045;-76
2022/10/05 11:54:00;;;;;;;4.70;1.30;;;;;;;22.39;34.16;101495.84;4989464;28;20092;-72
2022/10/05 11:56:40;;;;;;;3.00;1.10;;;;;;;22.77;31.84;101524.03;4942312;28;20042;-79
2022/10/05 11:59:25;;;;;;;2.42;1.25;;;;;;;23.05;31.31;101532.03;4988036;28;20038;-74
2022/10/05 12:02:23;;;;;;;3.45;1.30;;;;;;;23.27;32.26;101527.69;4989394;28;20509;-78
2022/10/05 12:04:51;;;;;;;2.58;1.30;;;;;;;22.72;32.44;101488.94;4912924;29;20076;-71
2022/10/05 12:07:26;;;;;;;3.20;1.10;;;;;;;22.81;34.25;101518.81;4896705;29;20039;-75
2022/10/05 12:10:21;;;;;;;1.52;0.90;;;;;;;23.09;32.49;101514.47;4912537;29;20499;-78
2022/10/05 12:13:20;;;;;;;1.48;1.00;;;;;;;23.28;33.13;101507.50;4912570;29;20051;-75
2022/10/05 12:15:59;;;;;;;4.90;1.23;;;;;;;23.18;33.59;101501.34;4912548;29;20048;-71
2022/10/05 12:18:31;;;;;;;2.35;1.00;;;;;;;23.00;32.46;101507.41;4912516;29;20075;-72
2022/10/05 12:21:14;;;;;;;3.60;1.00;;;;;;;22.76;32.01;101466.13;4912515;29;20582;-75
2022/10/05 12:24:13;;;;;;;1.70;1.10;;;;;;;22.99;31.05;101500.41;4912596;29;20226;-72
2022/10/05 12:26:47;;;;;;;3.33;1.40;;;;;;;22.84;31.34;101481.94;4923166;29;20577;-75
2022/10/05 12:29:17;;;;;;;3.50;1.48;;;;;;;22.86;31.17;101493.38;4950547;29;20043;-76
2022/10/05 12:31:43;;;;;;;3.17;1.35;;;;;;;23.00;31.74;101482.84;4950578;29;20027;-79
2022/10/05 12:34:14;;;;;;;3.03;1.33;;;;;;;22.94;31.41;101489.88;4950488;29;20532;-74
2022/10/05 12:36:49;;;;;;;4.75;1.33;;;;;;;22.94;32.18;101487.25;4950456;29;20064;-74
2022/10/05 12:39:24;;;;;;;3.42;1.30;;;;;;;22.88;32.90;101457.38;4950731;28;20098;-72
2022/10/05 12:42:03;;;;;;;4.93;1.05;;;;;;;22.84;31.25;101451.25;4987267;28;20038;-72
2022/10/05 12:44:53;;;;;;;1.10;1.00;;;;;;;22.98;30.94;101493.38;5014946;28;20393;-74
2022/10/05 12:47:37;;;;;;;2.00;1.00;;;;;;;22.88;31.95;101494.22;5015156;28;20067;-74